createdAt,value
2022-10-05T00:04:52.141Z,21.60
2022-10-05T00:11:34.834Z,22.70
2022-10-05T00:18:17.410Z,23.10
2022-10-05T00:25:00.091Z,20.80
2022-10-05T00:31:42.715Z,19.70
2022-10-05T00:38:26.040Z,19.60
2022-10-05T00:45:24.095Z,18.70
2022-10-05T01:12:39.659Z,17.40
2022-10-05T01:19:34.549Z,15.00
2022-10-05T01:26:18.752Z,16.20
2022-10-05T01:33:17.093Z,15.90
2022-10-05T01:40:14.869Z,15.50
2022-10-05T02:01:09.832Z,13.10
2022-10-05T02:07:53.850Z,12.70
2022-10-05T02:14:36.807Z,13.10
2022-10-05T02:21:25.998Z,13.20
2022-10-05T02:28:09.042Z,14.30
2022-10-05T02:35:07.160Z,14.50
2022-10-05T02:41:50.278Z,14.80
2022-10-05T02:48:39.260Z,14.70
2022-10-05T02:55:22.008Z,13.70
2022-10-05T03:02:04.978Z,13.80
2022-10-05T03:08:53.683Z,13.70
2022-10-05T03:16:12.420Z,12.90
2022-10-05T03:23:04.279Z,13.50
2022-10-05T03:29:53.886Z,14.00
2022-10-05T03:44:27.715Z,12.50
2022-10-05T03:51:05.855Z,14.90
2022-10-05T04:04:17.394Z,14.10
2022-10-05T04:11:00.277Z,12.80
2022-10-05T04:17:46.237Z,13.60
2022-10-05T04:24:40.842Z,14.60
2022-10-05T04:31:24.629Z,17.00
2022-10-05T04:38:16.780Z,13.70
2022-10-05T04:45:26.994Z,13.40
2022-10-05T04:52:18.545Z,13.30
2022-10-05T04:58:51.060Z,12.40
2022-10-05T05:05:27.312Z,12.00
2022-10-05T05:11:30.521Z,11.70
2022-10-05T05:18:06.565Z,10.60
2022-10-05T05:31:05.412Z,10.90
2022-10-05T05:36:50.556Z,9.90
2022-10-05T05:43:20.124Z,11.90
2022-10-05T05:50:06.979Z,12.10
2022-10-05T05:56:34.232Z,10.90
2022-10-05T06:02:07.258Z,10.80
2022-10-05T06:07:31.956Z,13.10
2022-10-05T06:13:57.372Z,13.40
2022-10-05T06:20:39.444Z,12.20
2022-10-05T06:27:20.394Z,12.10
2022-10-05T06:34:05.215Z,12.00
2022-10-05T06:40:41.525Z,12.40
2022-10-05T06:47:28.924Z,11.40
2022-10-05T06:54:17.676Z,10.30
2022-10-05T07:00:20.394Z,10.60
2022-10-05T07:13:56.058Z,7.50
2022-10-05T07:20:19.304Z,7.40
2022-10-05T07:27:14.598Z,6.60
2022-10-05T07:34:02.087Z,6.80
2022-10-05T07:40:14.875Z,5.70
2022-10-05T07:46:40.234Z,4.90
2022-10-05T07:52:10.687Z,4.80
2022-10-05T07:58:12.573Z,4.50
2022-10-05T08:04:16.122Z,5.10
2022-10-05T08:10:27.663Z,5.00
2022-10-05T08:15:54.081Z,5.10
2022-10-05T08:21:21.054Z,4.60
2022-10-05T08:27:08.605Z,4.30
2022-10-05T08:32:37.957Z,4.20
2022-10-05T08:38:24.670Z,3.90
2022-10-05T08:43:50.546Z,3.80
2022-10-05T08:49:43.024Z,4.10
2022-10-05T08:55:11.066Z,4.50
2022-10-05T09:00:49.075Z,3.50
2022-10-05T09:06:17.219Z,3.70
2022-10-05T09:11:54.717Z,3.60
2022-10-05T09:17:22.822Z,3.00
2022-10-05T09:23:20.195Z,4.10
2022-10-05T09:29:20.858Z,4.00
2022-10-05T09:35:25.085Z,3.50
2022-10-05T09:41:33.863Z,3.50
2022-10-05T09:59:53.034Z,3.10
2022-10-05T10:05:49.144Z,2.90
2022-10-05T10:12:01.772Z,3.40
2022-10-05T10:17:43.107Z,5.10
2022-10-05T10:23:54.692Z,4.30
2022-10-05T10:55:53.104Z,3.40
2022-10-05T11:02:09.087Z,2.60
2022-10-05T11:07:59.537Z,3.50
2022-10-05T11:13:59.062Z,3.40
2022-10-05T11:19:59.523Z,3.10
2022-10-05T11:25:56.124Z,3.50
2022-10-05T11:32:29.293Z,2.90
2022-10-05T11:39:19.500Z,3.30
2022-10-05T11:45:53.131Z,2.70
2022-10-05T11:51:50.581Z,3.50
2022-10-05T11:57:35.058Z,3.30
2022-10-05T12:03:33.199Z,3.10
2022-10-05T12:09:42.973Z,3.10
2022-10-05T12:15:34.741Z,2.50
2022-10-05T12:21:52.947Z,2.70
2022-10-05T12:27:43.231Z,3.70
2022-10-05T12:33:35.008Z,3.10
2022-10-05T12:57:06.316Z,3.40
2022-10-05T13:03:00.378Z,3.90
2022-10-05T13:08:43.826Z,3.70
2022-10-05T13:14:12.317Z,3.60
2022-10-05T13:20:09.756Z,4.10
2022-10-05T13:25:56.174Z,4.20
2022-10-05T13:31:43.633Z,4.20
2022-10-05T13:38:07.872Z,4.30
2022-10-05T13:44:18.308Z,4.00
2022-10-05T13:50:23.210Z,4.40
2022-10-05T13:56:08.033Z,5.10
2022-10-05T14:02:01.950Z,3.80
2022-10-05T14:07:57.034Z,3.40
2022-10-05T14:13:48.742Z,3.50
2022-10-05T14:19:22.385Z,4.80
2022-10-05T14:25:34.475Z,4.90
2022-10-05T14:31:27.730Z,5.70
2022-10-05T14:36:57.060Z,7.30
2022-10-05T14:43:23.579Z,5.20
2022-10-05T14:49:08.832Z,7.10
2022-10-05T14:55:01.310Z,4.80
2022-10-05T15:00:27.321Z,5.20
2022-10-05T15:05:56.085Z,5.20
2022-10-05T15:11:27.880Z,6.30
2022-10-05T15:17:43.280Z,7.60
2022-10-05T15:23:52.867Z,11.60
2022-10-05T15:30:14.206Z,6.30
2022-10-05T15:36:04.885Z,5.70
2022-10-05T15:42:29.829Z,5.20
2022-10-05T15:49:00.747Z,5.50
2022-10-05T15:55:46.546Z,5.40
2022-10-05T16:02:01.362Z,11.10
2022-10-05T16:14:56.196Z,20.60
2022-10-05T16:41:23.987Z,11.00
2022-10-05T16:47:16.204Z,9.30
2022-10-05T16:52:55.179Z,11.10
2022-10-05T16:59:31.977Z,13.90
2022-10-05T17:06:15.384Z,20.70
2022-10-05T17:12:22.317Z,14.10
2022-10-05T17:18:15.320Z,15.80
2022-10-05T17:24:00.925Z,15.50
2022-10-05T17:29:43.166Z,16.80
2022-10-05T17:35:26.135Z,18.60
2022-10-05T17:41:14.272Z,18.60
2022-10-05T17:47:02.120Z,19.10
2022-10-05T17:52:49.165Z,19.90
2022-10-05T17:58:32.202Z,19.00
2022-10-05T18:04:52.799Z,16.80
2022-10-05T18:11:07.323Z,14.80
2022-10-05T18:16:57.216Z,16.00
2022-10-05T18:22:46.210Z,14.40
2022-10-05T18:34:51.631Z,13.40
2022-10-05T18:47:38.472Z,12.70
2022-10-05T18:54:11.824Z,13.40
2022-10-05T19:00:34.064Z,13.30
2022-10-05T19:07:17.587Z,11.40
2022-10-05T19:14:06.812Z,10.70
2022-10-05T19:20:26.147Z,9.20
2022-10-05T19:47:01.334Z,8.20
2022-10-05T19:53:09.381Z,8.60
2022-10-05T19:59:39.180Z,8.50
2022-10-05T20:05:43.039Z,8.20
2022-10-05T20:11:30.089Z,13.10
2022-10-05T20:17:59.729Z,7.60
2022-10-05T20:23:42.439Z,10.30
2022-10-05T20:29:48.806Z,11.20
2022-10-05T20:36:32.459Z,11.80
2022-10-05T20:43:32.356Z,10.00
2022-10-05T20:50:15.902Z,8.30
2022-10-05T20:56:59.561Z,8.90
2022-10-05T21:03:42.500Z,8.70
2022-10-05T21:10:26.205Z,8.30
2022-10-05T21:17:14.779Z,8.80
2022-10-05T21:23:58.569Z,8.50
2022-10-05T21:30:41.682Z,9.00
2022-10-05T21:37:27.259Z,8.80
2022-10-05T21:44:10.370Z,8.10
2022-10-05T21:50:54.385Z,6.60
2022-10-05T21:57:37.284Z,7.20
2022-10-05T22:04:22.983Z,7.70
2022-10-05T22:11:10.556Z,7.70
2022-10-05T22:17:55.445Z,8.10
2022-10-05T22:24:02.918Z,8.40
